Eurocargo Venezia — IBKS — position and weather

sailwx.info

Track history (hours):
 
Tides and Currents Weather Stations Pressure Air Temp Water Temp Dewpoint Dewpoint Depression Visibility Wind Speed Wind Dir Waves Ship Positions

Eurocargo Venezia

Last reported at 2017-Nov-23 07:53 UTC. Time now 2017-Nov-23 09:36 UTC.
Position N 35°53' E 014°31'.

Length 200 m; draft 6.9 m.

Type: Ship (hazmat cat A). MMSI: 247297200.

Date/timePositionNaut miles runAvg speedWind from/ knotsBaromVisibWave heightAir tempDewpointWater temp
2017-Nov-23 07:53N 35°53' E 014°31'0 0.0
2017-Nov-23 07:05N 35°53' E 014°31'0 0.0
2017-Nov-23 06:47N 35°53' E 014°31'0 0.0
2017-Nov-23 06:23N 35°53' E 014°31'0 0.0
2017-Nov-23 05:59N 35°53' E 014°31'0 0.0
2017-Nov-23 05:29N 35°53' E 014°31'0 0.0
2017-Nov-23 03:33N 35°53' E 014°31'1 3.2
2017-Nov-23 03:13N 35°54' E 014°31'210.8
2017-Nov-23 03:00N 35°56' E 014°33'917.6
2017-Nov-23 02:29N 36°03' E 014°40'918.4
2017-Nov-23 02:00N 36°10' E 014°46'  
2017-Nov-19 06:39N 38°49' E 015°22'617.9
2017-Nov-19 06:20N 38°44' E 015°26'718.2
2017-Nov-19 05:57N 38°38' E 015°30'818.4
2017-Nov-19 05:30N 38°30' E 015°35'918.3
2017-Nov-19 05:00N 38°22' E 015°41'713.0
2017-Nov-19 04:28N 38°15' E 015°41'817.3
2017-Nov-19 04:00N 38°08' E 015°36'916.7
2017-Nov-19 03:30N 38°01' E 015°31'917.6
2017-Nov-19 03:00N 37°53' E 015°27'917.7
2017-Nov-19 02:30N 37°45' E 015°21'917.5
2017-Nov-19 02:00N 37°37' E 015°17'82 7.2
2017-Nov-18 14:37N 36°17' E 014°52'217.6
2017-Nov-18 14:30N 36°15' E 014°51'917.4
2017-Nov-18 14:00N 36°08' E 014°44'917.2
2017-Nov-18 13:30N 36°01' E 014°38'917.2
2017-Nov-18 13:00N 35°54' E 014°32'2 2.0
2017-Nov-18 12:06N 35°53' E 014°31'0 0.0
2017-Nov-18 10:18N 35°53' E 014°31'0 0.0
2017-Nov-18 09:00N 35°53' E 014°31'0 0.0
2017-Nov-18 08:12N 35°53' E 014°31'0 0.0
2017-Nov-18 05:36N 35°53' E 014°31'0 0.0
2017-Nov-18 05:30N 35°53' E 014°31'2 3.9
2017-Nov-18 05:00N 35°55' E 014°32'815.3
2017-Nov-18 04:30N 36°01' E 014°38'814.2
2017-Nov-18 03:57N 36°07' E 014°44'8115.8
2017-Nov-17 22:51N 37°25' E 015°12'8 0.9
2017-Nov-17 13:57N 37°32' E 015°14'920.0
2017-Nov-17 13:30N 37°40' E 015°19'1020.4
2017-Nov-17 13:00N 37°49' E 015°24'1020.1
2017-Nov-17 12:30N 37°59' E 015°30'1020.0
2017-Nov-17 12:00N 38°08' E 015°34'1019.3
2017-Nov-17 11:30N 38°16' E 015°40'1019.4
2017-Nov-17 11:00N 38°25' E 015°36'1020.6
2017-Nov-17 10:31N 38°35' E 015°31'1120.7
2017-Nov-17 10:00N 38°45' E 015°25'1120.8
2017-Nov-17 09:27N 38°54' E 015°18'3019.8
2017-Nov-17 07:58N 39°19' E 014°56'27919.1
2017-Nov-16 17:22N 42°41' E 010°41'2219.3
2017-Nov-16 16:15N 42°59' E 010°25'519.3
2017-Nov-16 16:00N 43°04' E 010°23'1019.6
2017-Nov-16 15:31N 43°13' E 010°19'1019.4
2017-Nov-16 15:01N 43°22' E 010°15'918.1
2017-Nov-16 14:30N 43°31' E 010°13'5 9.4
2017-Nov-16 13:58N 43°34' E 010°18'1 1.3
2017-Nov-16 13:25N 43°35' E 010°19'0 0.0
2017-Nov-16 12:58N 43°35' E 010°19'0 0.0
2017-Nov-16 12:28N 43°35' E 010°19'0 0.0
2017-Nov-16 11:55N 43°35' E 010°19'0 0.0
2017-Nov-16 11:28N 43°35' E 010°19'0 0.0
2017-Nov-16 10:52N 43°35' E 010°19'0 0.0
2017-Nov-16 10:28N 43°35' E 010°19'0 0.0
2017-Nov-16 09:58N 43°35' E 010°19'0 0.0
2017-Nov-16 09:28N 43°35' E 010°19'0 0.0
2017-Nov-16 08:55N 43°35' E 010°19'0 0.0
2017-Nov-16 08:28N 43°35' E 010°19'0 0.0
2017-Nov-16 07:58N 43°35' E 010°19'0 0.0
2017-Nov-16 07:28N 43°35' E 010°19'0 0.0
2017-Nov-16 06:55N 43°35' E 010°19'0 0.0
2017-Nov-16 06:28N 43°35' E 010°19'0 0.0
2017-Nov-16 05:58N 43°35' E 010°19'0 0.0
2017-Nov-16 05:28N 43°35' E 010°19'0 0.0
2017-Nov-16 04:57N 43°35' E 010°19'2 4.7
2017-Nov-16 04:31N 43°33' E 010°17'4 9.0
2017-Nov-16 04:01N 43°30' E 010°13'610.2
2017-Nov-16 03:26N 43°30' E 010°05'511.1
2017-Nov-16 03:00N 43°31' E 009°59'611.0
2017-Nov-16 02:26N 43°35' E 009°51'613.7
2017-Nov-16 02:00N 43°39' E 009°46'917.2
2017-Nov-16 01:31N 43°46' E 009°38'917.0
2017-Nov-16 00:57N 43°53' E 009°30'817.5
2017-Nov-16 00:31N 43°58' E 009°22'917.1
2017-Nov-16 00:00N 44°04' E 009°14'816.9
2017-Nov-15 23:31N 44°11' E 009°06'816.8
2017-Nov-15 23:00N 44°17' E 008°59'714.3
2017-Nov-15 22:30N 44°24' E 008°55'1 2.3
2017-Nov-15 21:58N 44°24' E 008°53'0 0.0
2017-Nov-15 21:28N 44°24' E 008°53'0 0.0
2017-Nov-15 20:58N 44°24' E 008°53'0 0.0
2017-Nov-15 20:25N 44°24' E 008°53'0 0.0
2017-Nov-15 19:58N 44°24' E 008°53'0 0.0
2017-Nov-15 19:25N 44°24' E 008°53'0 0.0
2017-Nov-15 18:58N 44°24' E 008°53'0 0.0
2017-Nov-15 18:25N 44°24' E 008°53'0 0.0
2017-Nov-15 17:55N 44°24' E 008°53'0 0.0
2017-Nov-15 17:22N 44°24' E 008°53'0 0.0
2017-Nov-15 16:55N 44°24' E 008°53'0 0.0
2017-Nov-15 16:25N 44°24' E 008°53'0 0.0
2017-Nov-15 15:55N 44°24' E 008°53'0 0.0
2017-Nov-15 15:25N 44°24' E 008°53'0 0.0
2017-Nov-15 14:55N 44°24' E 008°53'0 0.0
2017-Nov-15 14:25N 44°24' E 008°53'0 0.0
2017-Nov-15 13:55N 44°24' E 008°53'0 0.0
2017-Nov-15 13:30N 44°24' E 008°53'2 3.2
2017-Nov-15 13:00N 44°24' E 008°55'713.5
2017-Nov-15 12:30N 44°18' E 009°01'1019.4
2017-Nov-15 12:01N 44°11' E 009°10'1019.9
2017-Nov-15 11:30N 44°03' E 009°19'1019.5
2017-Nov-15 11:01N 43°56' E 009°27'1020.2
2017-Nov-15 10:30N 43°48' E 009°36'1020.1
2017-Nov-15 10:00N 43°40' E 009°45'1020.1
2017-Nov-15 09:30N 43°33' E 009°54'1020.1
2017-Nov-15 09:00N 43°26' E 010°05'1020.2
2017-Nov-15 08:30N 43°17' E 010°11'1019.8
2017-Nov-15 08:00N 43°08' E 010°17'34619.8
2017-Nov-14 14:33N 38°50' E 015°22'119.4
2017-Nov-14 14:30N 38°49' E 015°23'1319.5
2017-Nov-14 13:51N 38°38' E 015°30'719.9
2017-Nov-14 13:29N 38°31' E 015°34'1020.0
2017-Nov-14 13:00N 38°23' E 015°41'714.3
2017-Nov-14 12:30N 38°16' E 015°42'917.7
2017-Nov-14 12:00N 38°09' E 015°36'918.3
2017-Nov-14 11:31N 38°00' E 015°31'918.5
2017-Nov-14 11:00N 37°52' E 015°26'1018.0
2017-Nov-14 10:28N 37°43' E 015°21'  
Track history (hours):
 
Tides and Currents Weather Stations Pressure Air Temp Water Temp Dewpoint Dewpoint Depression Visibility Wind Speed Wind Dir Waves Ship Positions

Eurocargo Venezia

Last reported at 2017-Nov-23 07:53 UTC. Time now 2017-Nov-23 09:36 UTC.
Position N 35°53' E 014°31'.

Length 200 m; draft 6.9 m.

Type: Ship (hazmat cat A). MMSI: 247297200.

Date/timePositionNaut miles runAvg speedWind from/ knotsBaromVisibWave heightAir tempDewpointWater temp
2017-Nov-23 07:53N 35°53' E 014°31'0 0.0
2017-Nov-23 07:05N 35°53' E 014°31'0 0.0
2017-Nov-23 06:47N 35°53' E 014°31'0 0.0
2017-Nov-23 06:23N 35°53' E 014°31'0 0.0
2017-Nov-23 05:59N 35°53' E 014°31'0 0.0
2017-Nov-23 05:29N 35°53' E 014°31'0 0.0
2017-Nov-23 03:33N 35°53' E 014°31'1 3.2
2017-Nov-23 03:13N 35°54' E 014°31'210.8
2017-Nov-23 03:00N 35°56' E 014°33'917.6
2017-Nov-23 02:29N 36°03' E 014°40'918.4
2017-Nov-23 02:00N 36°10' E 014°46'  
2017-Nov-19 06:39N 38°49' E 015°22'617.9
2017-Nov-19 06:20N 38°44' E 015°26'718.2
2017-Nov-19 05:57N 38°38' E 015°30'818.4
2017-Nov-19 05:30N 38°30' E 015°35'918.3
2017-Nov-19 05:00N 38°22' E 015°41'713.0
2017-Nov-19 04:28N 38°15' E 015°41'817.3
2017-Nov-19 04:00N 38°08' E 015°36'916.7
2017-Nov-19 03:30N 38°01' E 015°31'917.6
2017-Nov-19 03:00N 37°53' E 015°27'917.7
2017-Nov-19 02:30N 37°45' E 015°21'917.5
2017-Nov-19 02:00N 37°37' E 015°17'82 7.2
2017-Nov-18 14:37N 36°17' E 014°52'217.6
2017-Nov-18 14:30N 36°15' E 014°51'917.4
2017-Nov-18 14:00N 36°08' E 014°44'917.2
2017-Nov-18 13:30N 36°01' E 014°38'917.2
2017-Nov-18 13:00N 35°54' E 014°32'2 2.0
2017-Nov-18 12:06N 35°53' E 014°31'0 0.0
2017-Nov-18 10:18N 35°53' E 014°31'0 0.0
2017-Nov-18 09:00N 35°53' E 014°31'0 0.0
2017-Nov-18 08:12N 35°53' E 014°31'0 0.0
2017-Nov-18 05:36N 35°53' E 014°31'0 0.0
2017-Nov-18 05:30N 35°53' E 014°31'2 3.9
2017-Nov-18 05:00N 35°55' E 014°32'815.3
2017-Nov-18 04:30N 36°01' E 014°38'814.2
2017-Nov-18 03:57N 36°07' E 014°44'8115.8
2017-Nov-17 22:51N 37°25' E 015°12'8 0.9
2017-Nov-17 13:57N 37°32' E 015°14'920.0
2017-Nov-17 13:30N 37°40' E 015°19'1020.4
2017-Nov-17 13:00N 37°49' E 015°24'1020.1
2017-Nov-17 12:30N 37°59' E 015°30'1020.0
2017-Nov-17 12:00N 38°08' E 015°34'1019.3
2017-Nov-17 11:30N 38°16' E 015°40'1019.4
2017-Nov-17 11:00N 38°25' E 015°36'1020.6
2017-Nov-17 10:31N 38°35' E 015°31'1120.7
2017-Nov-17 10:00N 38°45' E 015°25'1120.8
2017-Nov-17 09:27N 38°54' E 015°18'3019.8
2017-Nov-17 07:58N 39°19' E 014°56'27919.1
2017-Nov-16 17:22N 42°41' E 010°41'2219.3
2017-Nov-16 16:15N 42°59' E 010°25'519.3
2017-Nov-16 16:00N 43°04' E 010°23'1019.6
2017-Nov-16 15:31N 43°13' E 010°19'1019.4
2017-Nov-16 15:01N 43°22' E 010°15'918.1
2017-Nov-16 14:30N 43°31' E 010°13'5 9.4
2017-Nov-16 13:58N 43°34' E 010°18'1 1.3
2017-Nov-16 13:25N 43°35' E 010°19'0 0.0
2017-Nov-16 12:58N 43°35' E 010°19'0 0.0
2017-Nov-16 12:28N 43°35' E 010°19'0 0.0
2017-Nov-16 11:55N 43°35' E 010°19'0 0.0
2017-Nov-16 11:28N 43°35' E 010°19'0 0.0
2017-Nov-16 10:52N 43°35' E 010°19'0 0.0
2017-Nov-16 10:28N 43°35' E 010°19'0 0.0
2017-Nov-16 09:58N 43°35' E 010°19'0 0.0
2017-Nov-16 09:28N 43°35' E 010°19'0 0.0
2017-Nov-16 08:55N 43°35' E 010°19'0 0.0
2017-Nov-16 08:28N 43°35' E 010°19'0 0.0
2017-Nov-16 07:58N 43°35' E 010°19'0 0.0
2017-Nov-16 07:28N 43°35' E 010°19'0 0.0
2017-Nov-16 06:55N 43°35' E 010°19'0 0.0
2017-Nov-16 06:28N 43°35' E 010°19'0 0.0
2017-Nov-16 05:58N 43°35' E 010°19'0 0.0
2017-Nov-16 05:28N 43°35' E 010°19'0 0.0
2017-Nov-16 04:57N 43°35' E 010°19'2 4.7
2017-Nov-16 04:31N 43°33' E 010°17'4 9.0
2017-Nov-16 04:01N 43°30' E 010°13'610.2
2017-Nov-16 03:26N 43°30' E 010°05'511.1
2017-Nov-16 03:00N 43°31' E 009°59'611.0
2017-Nov-16 02:26N 43°35' E 009°51'613.7
2017-Nov-16 02:00N 43°39' E 009°46'917.2
2017-Nov-16 01:31N 43°46' E 009°38'917.0
2017-Nov-16 00:57N 43°53' E 009°30'817.5
2017-Nov-16 00:31N 43°58' E 009°22'917.1
2017-Nov-16 00:00N 44°04' E 009°14'816.9
2017-Nov-15 23:31N 44°11' E 009°06'816.8
2017-Nov-15 23:00N 44°17' E 008°59'714.3
2017-Nov-15 22:30N 44°24' E 008°55'1 2.3
2017-Nov-15 21:58N 44°24' E 008°53'0 0.0
2017-Nov-15 21:28N 44°24' E 008°53'0 0.0
2017-Nov-15 20:58N 44°24' E 008°53'0 0.0
2017-Nov-15 20:25N 44°24' E 008°53'0 0.0
2017-Nov-15 19:58N 44°24' E 008°53'0 0.0
2017-Nov-15 19:25N 44°24' E 008°53'0 0.0
2017-Nov-15 18:58N 44°24' E 008°53'0 0.0
2017-Nov-15 18:25N 44°24' E 008°53'0 0.0
2017-Nov-15 17:55N 44°24' E 008°53'0 0.0
2017-Nov-15 17:22N 44°24' E 008°53'0 0.0
2017-Nov-15 16:55N 44°24' E 008°53'0 0.0
2017-Nov-15 16:25N 44°24' E 008°53'0 0.0
2017-Nov-15 15:55N 44°24' E 008°53'0 0.0
2017-Nov-15 15:25N 44°24' E 008°53'0 0.0
2017-Nov-15 14:55N 44°24' E 008°53'0 0.0
2017-Nov-15 14:25N 44°24' E 008°53'0 0.0
2017-Nov-15 13:55N 44°24' E 008°53'0 0.0
2017-Nov-15 13:30N 44°24' E 008°53'2 3.2
2017-Nov-15 13:00N 44°24' E 008°55'713.5
2017-Nov-15 12:30N 44°18' E 009°01'1019.4
2017-Nov-15 12:01N 44°11' E 009°10'1019.9
2017-Nov-15 11:30N 44°03' E 009°19'1019.5
2017-Nov-15 11:01N 43°56' E 009°27'1020.2
2017-Nov-15 10:30N 43°48' E 009°36'1020.1
2017-Nov-15 10:00N 43°40' E 009°45'1020.1
2017-Nov-15 09:30N 43°33' E 009°54'1020.1
2017-Nov-15 09:00N 43°26' E 010°05'1020.2
2017-Nov-15 08:30N 43°17' E 010°11'1019.8
2017-Nov-15 08:00N 43°08' E 010°17'34619.8
2017-Nov-14 14:33N 38°50' E 015°22'119.4
2017-Nov-14 14:30N 38°49' E 015°23'1319.5
2017-Nov-14 13:51N 38°38' E 015°30'719.9
2017-Nov-14 13:29N 38°31' E 015°34'1020.0
2017-Nov-14 13:00N 38°23' E 015°41'714.3
2017-Nov-14 12:30N 38°16' E 015°42'917.7
2017-Nov-14 12:00N 38°09' E 015°36'918.3
2017-Nov-14 11:31N 38°00' E 015°31'918.5
2017-Nov-14 11:00N 37°52' E 015°26'1018.0
2017-Nov-14 10:28N 37°43' E 015°21'  

Dump ship's entire track history